createdAt,value
2022-11-18T00:00:04.817Z,99739.47
2022-11-18T00:02:45.244Z,99738.50
2022-11-18T00:05:25.006Z,99739.75
2022-11-18T00:08:07.192Z,99737.19
2022-11-18T00:10:49.889Z,99736.38
2022-11-18T00:13:46.878Z,99743.84
2022-11-18T00:16:28.588Z,99733.91
2022-11-18T00:19:07.979Z,99721.09
2022-11-18T00:21:49.878Z,99720.84
2022-11-18T00:24:29.558Z,99717.63
2022-11-18T00:27:09.021Z,99725.53
2022-11-18T00:30:00.604Z,99724.84
2022-11-18T00:32:40.505Z,99728.34
2022-11-18T00:35:20.203Z,99728.34
2022-11-18T00:37:59.988Z,99724.84
2022-11-18T00:40:41.874Z,99727.06
2022-11-18T00:43:23.236Z,99724.44
2022-11-18T00:46:03.234Z,99730.25
2022-11-18T00:48:42.776Z,99727.34
2022-11-18T00:51:22.244Z,99720.41
2022-11-18T00:54:02.052Z,99718.88
2022-11-18T00:56:43.876Z,99721.22
2022-11-18T00:59:23.419Z,99723.56
2022-11-18T01:02:03.038Z,99723.06
2022-11-18T01:04:42.883Z,99721.13
2022-11-18T01:07:22.748Z,99726.25
2022-11-18T01:10:03.337Z,99723.06
2022-11-18T01:13:01.417Z,99727.22
2022-11-18T01:15:44.859Z,99725.13
2022-11-18T01:18:26.637Z,99720.72
2022-11-18T01:21:07.426Z,99723.91
2022-11-18T01:23:47.168Z,99720.72
2022-11-18T01:26:26.985Z,99734.28
2022-11-18T01:29:06.850Z,99733.75
2022-11-18T01:32:09.365Z,99733.06
2022-11-18T01:34:48.843Z,99727.50
2022-11-18T01:37:28.610Z,99738.03
2022-11-18T01:40:10.022Z,99737.78
2022-11-18T01:42:49.734Z,99736.41
2022-11-18T01:45:34.152Z,99740.56
2022-11-18T01:48:17.996Z,99743.59
2022-11-18T01:51:02.221Z,99751.59
2022-11-18T01:53:45.064Z,99750.63
2022-11-18T01:56:29.940Z,99748.72
2022-11-18T01:59:13.060Z,99759.50
2022-11-18T02:01:59.671Z,99753.16
2022-11-18T02:04:42.166Z,99753.56
2022-11-18T02:07:23.881Z,99751.22
2022-11-18T02:10:08.106Z,99761.47
2022-11-18T02:12:50.333Z,99760.22
2022-11-18T02:15:43.719Z,99765.50
2022-11-18T02:18:32.044Z,99767.41
2022-11-18T02:21:22.831Z,99769.25
2022-11-18T02:24:20.422Z,99787.09
2022-11-18T02:27:20.407Z,99785.44
2022-11-18T02:30:04.845Z,99785.72
2022-11-18T02:32:49.994Z,99786.13
2022-11-18T02:35:31.269Z,99788.75
2022-11-18T02:38:12.805Z,99793.91
2022-11-18T02:40:55.815Z,99800.41
2022-11-18T02:43:39.076Z,99795.97
2022-11-18T02:46:26.482Z,99802.50
2022-11-18T02:49:52.895Z,99809.84
2022-11-18T02:52:34.635Z,99816.75
2022-11-18T02:55:15.178Z,99826.06
2022-11-18T02:57:58.476Z,99830.06
2022-11-18T03:00:38.587Z,99827.84
2022-11-18T03:03:28.060Z,99826.19
2022-11-18T03:06:11.753Z,99819.53
2022-11-18T03:08:58.656Z,99820.78
2022-11-18T03:11:49.571Z,99821.03
2022-11-18T03:14:36.971Z,99825.34
2022-11-18T03:17:22.287Z,99825.50
2022-11-18T03:20:11.900Z,99825.63
2022-11-18T03:22:55.319Z,99823.13
2022-11-18T03:25:38.988Z,99820.88
2022-11-18T03:28:37.144Z,99829.09
2022-11-18T03:31:20.126Z,99827.81
2022-11-18T03:34:03.234Z,99832.69
2022-11-18T03:36:51.774Z,99843.91
2022-11-18T03:39:37.406Z,99830.19
2022-11-18T03:42:20.246Z,99833.38
2022-11-18T03:45:03.855Z,99844.41
2022-11-18T03:47:44.623Z,99848.88
2022-11-18T03:50:27.967Z,99848.31
2022-11-18T03:53:08.482Z,99850.38
2022-11-18T03:55:52.311Z,99853.44
2022-11-18T03:58:35.300Z,99851.06
2022-11-18T04:01:19.023Z,99856.63
2022-11-18T04:04:01.566Z,99862.44
2022-11-18T04:06:46.656Z,99865.16
2022-11-18T04:09:31.250Z,99872.69
2022-11-18T04:12:14.435Z,99878.25
2022-11-18T04:14:55.426Z,99881.44
2022-11-18T04:17:38.180Z,99879.41
2022-11-18T04:20:19.591Z,99882.31
2022-11-18T04:23:01.050Z,99882.75
2022-11-18T04:25:40.371Z,99887.59
2022-11-18T04:28:20.223Z,99883.97
2022-11-18T04:31:00.025Z,99886.41
2022-11-18T04:33:39.869Z,99884.50
2022-11-18T04:36:19.952Z,99884.72
2022-11-18T04:39:02.175Z,99886.00
2022-11-18T04:41:57.541Z,99888.06
2022-11-18T04:44:40.285Z,99889.41
2022-11-18T04:47:22.474Z,99884.75
2022-11-18T04:50:05.433Z,99897.91
2022-11-18T04:52:45.635Z,99897.47
2022-11-18T04:55:27.190Z,99902.75
2022-11-18T04:58:06.933Z,99912.22
2022-11-18T05:00:46.708Z,99904.41
2022-11-18T05:03:28.503Z,99909.03
2022-11-18T05:06:07.152Z,99902.69
2022-11-18T05:08:49.738Z,99906.50
2022-11-18T05:11:47.112Z,99904.56
2022-11-18T05:14:27.963Z,99917.38
2022-11-18T05:17:09.748Z,99915.59
2022-11-18T05:19:49.355Z,99914.56
2022-11-18T05:22:29.148Z,99915.25
2022-11-18T05:25:11.297Z,99911.75
2022-11-18T05:27:51.938Z,99919.28
2022-11-18T05:30:31.870Z,99923.75
2022-11-18T05:33:13.555Z,99937.44
2022-11-18T05:35:55.246Z,99938.75
2022-11-18T05:38:36.413Z,99943.63
2022-11-18T05:41:32.250Z,99937.41
2022-11-18T05:44:13.798Z,99943.28
2022-11-18T05:46:53.046Z,99942.53
2022-11-18T05:49:32.921Z,99939.69
2022-11-18T05:52:14.664Z,99944.13
2022-11-18T05:54:54.028Z,99954.84
2022-11-18T05:57:33.831Z,99964.38
2022-11-18T06:00:15.492Z,99971.13
2022-11-18T06:02:56.023Z,99973.03
2022-11-18T06:05:36.573Z,99973.28
2022-11-18T06:08:17.931Z,99974.06
2022-11-18T06:10:57.798Z,99978.38
2022-11-18T06:13:42.704Z,99977.69
2022-11-18T06:16:26.659Z,99983.91
2022-11-18T06:19:06.928Z,99977.44
2022-11-18T06:21:47.717Z,99985.31
2022-11-18T06:24:26.834Z,99979.81
2022-11-18T06:27:06.390Z,99984.28
2022-11-18T06:29:45.961Z,99989.53
2022-11-18T06:32:25.740Z,99983.56
2022-11-18T06:35:06.416Z,99986.66
2022-11-18T06:37:47.502Z,100003.34
2022-11-18T06:40:27.363Z,99999.97
2022-11-18T06:43:28.178Z,100000.75
2022-11-18T06:46:28.278Z,100004.28
2022-11-18T06:49:07.795Z,100011.44
2022-11-18T06:51:47.617Z,100014.06
2022-11-18T06:54:27.447Z,100023.81
2022-11-18T06:57:07.250Z,100018.75
2022-11-18T07:00:02.313Z,100041.94
2022-11-18T07:02:42.151Z,100037.22
2022-11-18T07:05:21.580Z,100033.88
2022-11-18T07:08:01.506Z,100042.94
2022-11-18T07:10:40.008Z,100072.78
2022-11-18T07:13:19.524Z,100074.91
2022-11-18T07:16:05.646Z,100083.41
2022-11-18T07:18:46.647Z,100083.78
2022-11-18T07:21:30.173Z,100094.38
2022-11-18T07:24:12.400Z,100091.19
2022-11-18T07:26:53.664Z,100113.38
2022-11-18T07:29:34.432Z,100196.13
2022-11-18T07:32:14.156Z,100184.53
2022-11-18T07:34:52.764Z,100183.44
2022-11-18T07:37:32.170Z,100183.13
2022-11-18T07:40:11.758Z,100183.56
2022-11-18T07:42:51.719Z,100190.00
2022-11-18T07:45:37.931Z,100198.59
2022-11-18T07:48:19.761Z,100200.88
2022-11-18T07:51:01.375Z,100213.03
2022-11-18T07:53:42.278Z,100221.03
2022-11-18T07:56:22.576Z,100213.50
2022-11-18T07:59:03.376Z,100220.19
2022-11-18T08:01:45.284Z,100224.00
2022-11-18T08:04:24.686Z,100216.75
2022-11-18T08:07:04.608Z,100221.53
2022-11-18T08:09:46.220Z,100224.63
2022-11-18T08:12:25.648Z,100212.66
2022-11-18T08:15:05.731Z,100220.53
2022-11-18T08:17:45.282Z,100218.88
2022-11-18T08:20:27.813Z,100220.78
2022-11-18T08:23:10.146Z,100225.06
2022-11-18T08:26:05.026Z,100235.44
2022-11-18T08:28:46.292Z,100239.53
2022-11-18T08:31:27.297Z,100251.56
2022-11-18T08:34:08.488Z,100256.31
2022-11-18T08:36:50.465Z,100259.91
2022-11-18T08:39:29.855Z,100261.50
2022-11-18T08:42:11.844Z,100265.44
2022-11-18T08:44:51.142Z,100277.63
2022-11-18T08:47:30.867Z,100275.72
2022-11-18T08:50:12.756Z,100285.31
2022-11-18T08:52:52.169Z,100293.00
2022-11-18T08:55:46.052Z,100292.69
2022-11-18T08:58:29.571Z,100297.28
2022-11-18T09:01:14.759Z,100302.94
2022-11-18T09:03:54.482Z,100311.94
2022-11-18T09:06:35.595Z,100324.69
2022-11-18T09:09:15.543Z,100311.41
2022-11-18T09:11:54.067Z,100325.13
2022-11-18T09:15:12.509Z,100319.97
2022-11-18T09:17:36.250Z,100323.56
2022-11-18T09:20:15.999Z,100327.25
2022-11-18T09:22:55.389Z,100334.03
2022-11-18T09:25:37.193Z,100342.78
2022-11-18T09:28:18.568Z,100342.16
2022-11-18T09:30:56.759Z,100350.41
2022-11-18T09:33:36.289Z,100363.03
2022-11-18T09:36:17.336Z,100372.09
2022-11-18T09:39:00.611Z,100384.38
2022-11-18T09:41:46.491Z,100385.38
2022-11-18T09:44:40.701Z,100399.63
2022-11-18T09:47:26.880Z,100398.44
2022-11-18T09:50:41.814Z,100405.50
2022-11-18T09:53:20.021Z,100409.59
2022-11-18T09:56:14.059Z,100416.28
2022-11-18T09:58:53.410Z,100418.34
2022-11-18T10:01:33.334Z,100423.16
2022-11-18T10:04:24.988Z,100432.81
2022-11-18T10:07:14.217Z,100438.63
2022-11-18T10:09:55.905Z,100443.53
2022-11-18T10:12:42.843Z,100454.53
2022-11-18T10:15:30.875Z,100458.13
2022-11-18T10:18:44.805Z,100460.50
2022-11-18T10:21:25.018Z,100464.53
2022-11-18T10:24:11.538Z,100460.44
2022-11-18T10:26:58.052Z,100464.53
2022-11-18T10:29:40.285Z,100475.34
2022-11-18T10:32:20.130Z,100479.22
2022-11-18T10:35:00.003Z,100492.66
2022-11-18T10:38:09.196Z,100482.16
2022-11-18T10:40:46.631Z,100481.53
2022-11-18T10:43:45.565Z,100483.41
2022-11-18T10:46:28.375Z,100484.66
2022-11-18T10:49:16.411Z,100494.50
2022-11-18T10:52:10.148Z,100499.47
2022-11-18T10:55:08.207Z,100501.03
2022-11-18T10:57:49.290Z,100487.47
2022-11-18T11:00:36.763Z,100491.19
2022-11-18T11:03:28.876Z,100509.13
2022-11-18T11:06:24.568Z,100507.97
2022-11-18T11:09:09.819Z,100508.69
2022-11-18T11:12:00.164Z,100505.63
2022-11-18T11:14:50.681Z,100505.00
2022-11-18T11:17:34.396Z,100508.13
2022-11-18T11:20:19.409Z,100516.75
2022-11-18T11:22:59.413Z,100517.59
2022-11-18T11:28:51.124Z,100522.06
2022-11-18T11:31:37.556Z,100511.66
2022-11-18T11:34:26.698Z,100517.88
2022-11-18T11:47:49.435Z,100491.47
2022-11-18T11:51:01.585Z,100497.84
2022-11-18T11:54:07.784Z,100486.72
2022-11-18T11:56:50.197Z,100495.56
2022-11-18T11:59:36.826Z,100482.59
2022-11-18T12:02:35.918Z,100485.88
2022-11-18T12:05:24.173Z,100498.47
2022-11-18T12:08:07.746Z,100496.19
2022-11-18T12:11:06.535Z,100498.59
2022-11-18T12:13:51.757Z,100498.59
2022-11-18T12:16:37.948Z,100501.84
2022-11-18T12:19:20.234Z,100495.09
2022-11-18T12:22:03.936Z,100499.75
2022-11-18T12:24:44.329Z,100491.75
2022-11-18T12:27:58.963Z,100483.34
2022-11-18T12:30:41.735Z,100497.13
2022-11-18T12:33:22.885Z,100499.53
2022-11-18T12:36:05.991Z,100492.81
2022-11-18T12:38:46.519Z,100478.91
2022-11-18T12:42:14.250Z,100496.19
2022-11-18T12:44:54.737Z,100487.13
2022-11-18T12:47:59.311Z,100489.97
2022-11-18T12:50:51.613Z,100498.28
2022-11-18T12:53:43.559Z,100501.63
2022-11-18T12:56:26.065Z,100509.81
2022-11-18T12:59:06.071Z,100525.63
2022-11-18T13:02:19.019Z,100517.50
2022-11-18T13:05:13.151Z,100516.84
2022-11-18T13:08:12.894Z,100519.03
2022-11-18T13:11:18.330Z,100512.53
2022-11-18T13:14:16.427Z,100508.13
2022-11-18T13:17:15.997Z,100491.28
2022-11-18T13:19:59.356Z,100500.91
2022-11-18T13:23:08.276Z,100494.19
2022-11-18T13:25:50.343Z,100487.13
2022-11-18T13:28:34.783Z,100490.16
2022-11-18T13:31:18.884Z,100477.28
2022-11-18T13:34:01.967Z,100476.22
2022-11-18T13:36:45.271Z,100465.44
2022-11-18T13:39:26.457Z,100461.25
2022-11-18T13:42:08.791Z,100451.28
2022-11-18T13:44:54.840Z,100437.84
2022-11-18T13:47:38.258Z,100410.56
2022-11-18T13:50:23.971Z,100402.91
2022-11-18T13:53:09.682Z,100400.94
2022-11-18T13:55:52.977Z,100390.47
2022-11-18T13:59:02.602Z,100379.97
2022-11-18T14:01:40.146Z,100365.31
2022-11-18T14:04:21.674Z,100365.84
2022-11-18T14:07:23.101Z,100358.59
2022-11-18T14:10:16.523Z,100358.81
2022-11-18T14:13:00.709Z,100354.44
2022-11-18T14:15:44.047Z,100351.97
2022-11-18T14:18:31.316Z,100351.25
2022-11-18T14:21:13.696Z,100360.16
2022-11-18T14:23:53.104Z,100346.34
2022-11-18T14:26:33.594Z,100334.72
2022-11-18T14:29:21.220Z,100332.19
2022-11-18T14:32:15.686Z,100320.22
2022-11-18T14:35:15.655Z,100318.16
2022-11-18T14:38:04.640Z,100309.22
2022-11-18T14:40:57.719Z,100304.34
2022-11-18T14:43:37.572Z,100306.13
2022-11-18T14:46:21.572Z,100300.22
2022-11-18T14:49:03.551Z,100295.28
2022-11-18T14:51:43.228Z,100296.41
2022-11-18T14:54:27.427Z,100300.66
2022-11-18T14:57:07.659Z,100296.94
2022-11-18T14:59:49.416Z,100311.13
2022-11-18T15:02:28.899Z,100319.28
2022-11-18T15:05:09.576Z,100332.97
2022-11-18T15:07:50.149Z,100350.69
2022-11-18T15:10:30.060Z,100366.03
2022-11-18T15:13:09.613Z,100392.38
2022-11-18T15:15:49.480Z,100412.06
2022-11-18T15:18:29.274Z,100433.63
2022-11-18T15:21:09.105Z,100449.16
2022-11-18T15:23:51.228Z,100472.03
2022-11-18T15:26:37.218Z,100482.75
2022-11-18T15:29:20.573Z,100503.03
2022-11-18T15:32:16.546Z,100525.34
2022-11-18T15:34:55.907Z,100529.00
2022-11-18T15:37:35.712Z,100545.31
2022-11-18T15:40:18.227Z,100551.31
2022-11-18T15:42:58.525Z,100556.16
2022-11-18T15:45:40.683Z,100557.09
2022-11-18T15:48:23.280Z,100548.75
2022-11-18T15:51:06.360Z,100544.31
2022-11-18T15:53:48.914Z,100528.09
2022-11-18T15:56:30.512Z,100519.09
2022-11-18T15:59:11.132Z,100509.28
2022-11-18T16:01:54.350Z,100505.50
2022-11-18T16:04:35.405Z,100502.91
2022-11-18T16:07:15.972Z,100499.66
2022-11-18T16:10:13.224Z,100494.34
2022-11-18T16:12:53.892Z,100498.16
2022-11-18T16:15:48.053Z,100492.19
2022-11-18T16:18:28.760Z,100480.41
2022-11-18T16:21:08.761Z,100469.69
2022-11-18T16:23:48.572Z,100440.53
2022-11-18T16:26:30.680Z,100438.88
2022-11-18T16:29:15.704Z,100428.59
2022-11-18T16:31:55.833Z,100425.44
2022-11-18T16:34:39.289Z,100421.63
2022-11-18T16:37:21.660Z,100415.16
2022-11-18T16:40:03.772Z,100414.06
2022-11-18T16:42:43.149Z,100411.63
2022-11-18T16:45:22.965Z,100407.81
2022-11-18T16:48:04.736Z,100397.63
2022-11-18T16:50:44.075Z,100387.38
2022-11-18T16:53:25.915Z,100384.84
2022-11-18T16:56:07.467Z,100376.91
2022-11-18T16:58:46.761Z,100379.91
2022-11-18T17:01:29.598Z,100367.78
2022-11-18T17:04:11.366Z,100378.19
2022-11-18T17:06:51.811Z,100376.53
2022-11-18T17:09:32.798Z,100377.84
2022-11-18T17:12:12.131Z,100384.41
2022-11-18T17:14:52.227Z,100391.66
2022-11-18T17:17:31.756Z,100386.22
2022-11-18T17:20:11.887Z,100396.78
2022-11-18T17:22:52.915Z,100398.75
2022-11-18T17:25:34.578Z,100393.72
2022-11-18T17:28:14.288Z,100392.69
2022-11-18T17:30:54.033Z,100392.22
2022-11-18T17:33:34.018Z,100388.09
2022-11-18T17:36:15.376Z,100388.28
2022-11-18T17:38:56.673Z,100379.03
2022-11-18T17:41:53.952Z,100385.50
2022-11-18T17:44:35.971Z,100373.94
2022-11-18T17:47:15.316Z,100372.91
2022-11-18T17:49:55.071Z,100363.09
2022-11-18T17:52:33.792Z,100353.59
2022-11-18T17:55:15.654Z,100341.47
2022-11-18T17:57:56.027Z,100333.72
2022-11-18T18:00:37.147Z,100312.81
2022-11-18T18:03:17.258Z,100301.53
2022-11-18T18:06:03.355Z,100283.44
2022-11-18T18:08:43.371Z,100268.34
2022-11-18T18:11:23.404Z,100258.72
2022-11-18T18:14:13.740Z,100235.22
2022-11-18T18:16:54.027Z,100216.56
2022-11-18T18:19:34.700Z,100205.66
2022-11-18T18:22:17.291Z,100195.38
2022-11-18T18:24:56.536Z,100188.81
2022-11-18T18:27:36.597Z,100182.28
2022-11-18T18:30:17.161Z,100176.38
2022-11-18T18:32:57.667Z,100159.03
2022-11-18T18:35:40.503Z,100148.50
2022-11-18T18:38:20.382Z,100152.44
2022-11-18T18:41:02.268Z,100141.91
2022-11-18T18:43:42.026Z,100129.28
2022-11-18T18:46:36.589Z,100115.13
2022-11-18T18:49:20.280Z,100108.88
2022-11-18T18:52:02.218Z,100102.59
2022-11-18T18:54:41.617Z,100095.34
2022-11-18T18:57:21.445Z,100088.41
2022-11-18T19:00:01.277Z,100080.88
2022-11-18T19:02:43.021Z,100080.34
2022-11-18T19:05:33.508Z,100071.88
2022-11-18T19:08:23.156Z,100072.19
2022-11-18T19:11:05.769Z,100081.97
2022-11-18T19:13:45.896Z,100071.47
2022-11-18T19:16:25.668Z,100064.66
2022-11-18T19:19:08.384Z,100060.59
2022-11-18T19:21:49.913Z,100064.16
2022-11-18T19:24:48.808Z,100056.41
2022-11-18T19:27:30.820Z,100056.84
2022-11-18T19:30:13.492Z,100055.59
2022-11-18T19:32:55.698Z,100060.72
2022-11-18T19:35:37.692Z,100058.09
2022-11-18T19:38:29.654Z,100067.81
2022-11-18T19:41:10.742Z,100057.69
2022-11-18T19:43:52.731Z,100057.25
2022-11-18T19:46:32.202Z,100052.25
2022-11-18T19:49:12.000Z,100051.66
2022-11-18T19:51:51.797Z,100053.59
2022-11-18T19:54:31.596Z,100049.03
2022-11-18T19:57:23.132Z,100063.22
2022-11-18T20:00:03.471Z,100056.94
2022-11-18T20:02:49.094Z,100068.31
2022-11-18T20:05:53.441Z,100059.31
2022-11-18T20:08:34.519Z,100059.66
2022-11-18T20:11:16.043Z,100068.53
2022-11-18T20:13:55.598Z,100067.50
2022-11-18T20:16:38.010Z,100073.34
2022-11-18T20:19:20.977Z,100085.25
2022-11-18T20:22:01.415Z,100083.84
2022-11-18T20:24:41.281Z,100091.44
2022-11-18T20:27:21.549Z,100088.34
2022-11-18T20:30:00.957Z,100087.06
2022-11-18T20:32:40.631Z,100085.09
2022-11-18T20:35:20.463Z,100080.53
2022-11-18T20:38:12.061Z,100098.69
2022-11-18T20:40:52.830Z,100091.72
2022-11-18T20:43:33.890Z,100094.53
2022-11-18T20:46:20.066Z,100087.28
2022-11-18T20:49:01.528Z,100084.28
2022-11-18T20:51:42.296Z,100083.78
2022-11-18T20:54:34.139Z,100089.53
2022-11-18T20:57:15.291Z,100086.78
2022-11-18T20:59:55.135Z,100095.63
2022-11-18T21:02:34.872Z,100097.97
2022-11-18T21:05:14.770Z,100095.19
2022-11-18T21:07:54.453Z,100093.31
2022-11-18T21:10:47.280Z,100103.38
2022-11-18T21:13:44.639Z,100107.09
2022-11-18T21:16:25.914Z,100104.97
2022-11-18T21:19:08.257Z,100106.00
2022-11-18T21:21:51.806Z,100102.06
2022-11-18T21:24:35.265Z,100106.56
2022-11-18T21:27:15.539Z,100105.91
2022-11-18T21:29:56.092Z,100110.28
2022-11-18T21:32:35.994Z,100112.91
2022-11-18T21:35:15.902Z,100123.03
2022-11-18T21:37:55.539Z,100122.94
2022-11-18T21:40:35.374Z,100119.78
2022-11-18T21:43:15.171Z,100127.81
2022-11-18T21:45:54.933Z,100125.94
2022-11-18T21:48:34.757Z,100135.91
2022-11-18T21:51:16.288Z,100142.44
2022-11-18T21:53:57.980Z,100128.00
2022-11-18T21:56:39.424Z,100133.38
2022-11-18T21:59:22.420Z,100130.22
2022-11-18T22:02:22.665Z,100132.56
2022-11-18T22:05:07.121Z,100139.09
2022-11-18T22:07:47.204Z,100141.22
2022-11-18T22:10:26.989Z,100140.94
2022-11-18T22:13:08.687Z,100150.88
2022-11-18T22:15:50.083Z,100152.38
2022-11-18T22:18:32.797Z,100157.22
2022-11-18T22:21:13.702Z,100155.84
2022-11-18T22:23:58.409Z,100161.13
2022-11-18T22:26:38.596Z,100169.50
2022-11-18T22:29:18.534Z,100174.91
2022-11-18T22:32:00.189Z,100170.19
2022-11-18T22:34:39.791Z,100172.84
2022-11-18T22:37:19.317Z,100185.53
2022-11-18T22:40:14.094Z,100177.91
2022-11-18T22:42:53.942Z,100181.88
2022-11-18T22:45:33.756Z,100189.53
2022-11-18T22:48:13.486Z,100191.66
2022-11-18T22:50:58.776Z,100188.69
2022-11-18T22:53:41.547Z,100194.72
2022-11-18T22:56:21.272Z,100199.28
2022-11-18T22:59:00.807Z,100210.28
2022-11-18T23:01:40.965Z,100202.16
2022-11-18T23:04:20.462Z,100217.34
2022-11-18T23:07:00.287Z,100222.88
2022-11-18T23:09:39.968Z,100222.72
2022-11-18T23:12:37.226Z,100225.09
2022-11-18T23:15:18.204Z,100232.91
2022-11-18T23:18:00.598Z,100238.63
2022-11-18T23:20:40.162Z,100242.75
2022-11-18T23:23:19.880Z,100241.06
2022-11-18T23:26:05.804Z,100239.47
2022-11-18T23:28:48.020Z,100248.91
2022-11-18T23:31:28.888Z,100255.47
2022-11-18T23:34:08.968Z,100267.47
2022-11-18T23:36:48.460Z,100268.50
2022-11-18T23:39:28.256Z,100264.31
2022-11-18T23:42:10.084Z,100260.59
2022-11-18T23:44:52.674Z,100263.88
2022-11-18T23:47:32.413Z,100264.56
2022-11-18T23:50:12.356Z,100268.22
2022-11-18T23:52:52.064Z,100264.47
2022-11-18T23:55:31.848Z,100262.28
2022-11-18T23:58:11.705Z,100262.50
